sensor_id;sensor_type;location;lat;lon;timestamp;P1;durP1;ratioP1;P2;durP2;ratioP2
24389;SDS011;12510;56.468;-3.004;2023-07-09T00:01:59;32.63;;;29.98;;
24389;SDS011;12510;56.468;-3.004;2023-07-09T00:04:26;42.90;;;39.53;;
24389;SDS011;12510;56.468;-3.004;2023-07-09T00:06:54;42.15;;;39.05;;
24389;SDS011;12510;56.468;-3.004;2023-07-09T00:09:23;30.05;;;27.83;;
24389;SDS011;12510;56.468;-3.004;2023-07-09T00:11:50;40.08;;;37.08;;
24389;SDS011;12510;56.468;-3.004;2023-07-09T00:14:17;48.72;;;44.53;;
24389;SDS011;12510;56.468;-3.004;2023-07-09T00:16:44;38.50;;;35.75;;
24389;SDS011;12510;56.468;-3.004;2023-07-09T00:19:15;34.47;;;31.67;;
24389;SDS011;12510;56.468;-3.004;2023-07-09T00:21:47;55.95;;;51.67;;
24389;SDS011;12510;56.468;-3.004;2023-07-09T00:24:15;31.35;;;29.02;;
24389;SDS011;12510;56.468;-3.004;2023-07-09T00:26:42;43.13;;;39.88;;
24389;SDS011;12510;56.468;-3.004;2023-07-09T00:29:10;34.95;;;32.17;;
24389;SDS011;12510;56.468;-3.004;2023-07-09T00:31:38;33.45;;;30.98;;
24389;SDS011;12510;56.468;-3.004;2023-07-09T00:34:09;33.10;;;30.70;;
24389;SDS011;12510;56.468;-3.004;2023-07-09T00:36:41;34.08;;;31.35;;
24389;SDS011;12510;56.468;-3.004;2023-07-09T00:39:18;30.77;;;28.60;;
24389;SDS011;12510;56.468;-3.004;2023-07-09T00:41:46;28.73;;;26.58;;
24389;SDS011;12510;56.468;-3.004;2023-07-09T00:49:12;25.92;;;23.92;;
24389;SDS011;12510;56.468;-3.004;2023-07-09T00:51:43;28.38;;;26.08;;
24389;SDS011;12510;56.468;-3.004;2023-07-09T00:54:25;32.15;;;29.88;;
24389;SDS011;12510;56.468;-3.004;2023-07-09T00:57:10;29.02;;;27.00;;
24389;SDS011;12510;56.468;-3.004;2023-07-09T00:59:49;24.92;;;23.13;;
24389;SDS011;12510;56.468;-3.004;2023-07-09T01:02:20;34.72;;;32.15;;
24389;SDS011;12510;56.468;-3.004;2023-07-09T01:04:58;33.38;;;31.02;;
24389;SDS011;12510;56.468;-3.004;2023-07-09T01:07:30;34.28;;;31.35;;
24389;SDS011;12510;56.468;-3.004;2023-07-09T01:09:56;39.97;;;37.05;;
24389;SDS011;12510;56.468;-3.004;2023-07-09T01:12:23;43.53;;;40.13;;
24389;SDS011;12510;56.468;-3.004;2023-07-09T01:14:50;30.45;;;28.25;;
24389;SDS011;12510;56.468;-3.004;2023-07-09T01:17:18;43.10;;;40.05;;
24389;SDS011;12510;56.468;-3.004;2023-07-09T01:19:49;32.65;;;30.10;;
24389;SDS011;12510;56.468;-3.004;2023-07-09T01:22:17;77.70;;;71.15;;
24389;SDS011;12510;56.468;-3.004;2023-07-09T01:24:47;46.13;;;42.55;;
24389;SDS011;12510;56.468;-3.004;2023-07-09T01:27:18;23.05;;;21.08;;
24389;SDS011;12510;56.468;-3.004;2023-07-09T01:29:47;22.05;;;20.35;;
24389;SDS011;12510;56.468;-3.004;2023-07-09T01:32:15;30.38;;;28.02;;
24389;SDS011;12510;56.468;-3.004;2023-07-09T01:34:45;31.95;;;29.58;;
24389;SDS011;12510;56.468;-3.004;2023-07-09T01:37:14;21.75;;;20.13;;
24389;SDS011;12510;56.468;-3.004;2023-07-09T01:39:48;26.73;;;24.55;;
24389;SDS011;12510;56.468;-3.004;2023-07-09T01:42:16;36.45;;;33.65;;
24389;SDS011;12510;56.468;-3.004;2023-07-09T01:44:44;23.65;;;21.80;;
24389;SDS011;12510;56.468;-3.004;2023-07-09T01:47:11;40.70;;;37.22;;
24389;SDS011;12510;56.468;-3.004;2023-07-09T01:49:38;45.97;;;42.20;;
24389;SDS011;12510;56.468;-3.004;2023-07-09T01:52:05;40.45;;;37.15;;
24389;SDS011;12510;56.468;-3.004;2023-07-09T01:54:36;29.08;;;26.90;;
24389;SDS011;12510;56.468;-3.004;2023-07-09T01:59:42;30.83;;;28.45;;
24389;SDS011;12510;56.468;-3.004;2023-07-09T02:02:10;19.15;;;17.40;;
24389;SDS011;12510;56.468;-3.004;2023-07-09T02:04:48;27.80;;;25.65;;
24389;SDS011;12510;56.468;-3.004;2023-07-09T02:07:16;39.05;;;35.70;;
24389;SDS011;12510;56.468;-3.004;2023-07-09T02:09:43;28.73;;;26.27;;
24389;SDS011;12510;56.468;-3.004;2023-07-09T02:12:10;34.22;;;31.55;;
24389;SDS011;12510;56.468;-3.004;2023-07-09T02:14:38;27.35;;;25.27;;
24389;SDS011;12510;56.468;-3.004;2023-07-09T02:17:05;33.78;;;31.02;;
24389;SDS011;12510;56.468;-3.004;2023-07-09T02:19:32;27.13;;;25.02;;
24389;SDS011;12510;56.468;-3.004;2023-07-09T02:21:59;30.45;;;28.33;;
24389;SDS011;12510;56.468;-3.004;2023-07-09T02:24:25;37.60;;;34.78;;
24389;SDS011;12510;56.468;-3.004;2023-07-09T02:26:57;27.67;;;25.58;;
24389;SDS011;12510;56.468;-3.004;2023-07-09T02:29:24;30.10;;;27.60;;
24389;SDS011;12510;56.468;-3.004;2023-07-09T02:31:52;34.55;;;32.08;;
24389;SDS011;12510;56.468;-3.004;2023-07-09T02:34:20;30.80;;;28.60;;
24389;SDS011;12510;56.468;-3.004;2023-07-09T02:36:47;23.15;;;21.27;;
24389;SDS011;12510;56.468;-3.004;2023-07-09T02:39:13;41.28;;;37.88;;
24389;SDS011;12510;56.468;-3.004;2023-07-09T02:41:40;15.35;;;13.90;;
24389;SDS011;12510;56.468;-3.004;2023-07-09T02:44:07;30.30;;;28.02;;
24389;SDS011;12510;56.468;-3.004;2023-07-09T02:46:34;25.38;;;23.38;;
24389;SDS011;12510;56.468;-3.004;2023-07-09T02:49:03;35.85;;;32.85;;
24389;SDS011;12510;56.468;-3.004;2023-07-09T02:51:30;32.95;;;30.23;;
24389;SDS011;12510;56.468;-3.004;2023-07-09T02:53:59;33.63;;;31.13;;
24389;SDS011;12510;56.468;-3.004;2023-07-09T02:56:26;26.05;;;23.83;;
24389;SDS011;12510;56.468;-3.004;2023-07-09T02:58:53;38.55;;;35.50;;
24389;SDS011;12510;56.468;-3.004;2023-07-09T03:01:20;23.63;;;21.48;;
24389;SDS011;12510;56.468;-3.004;2023-07-09T03:03:51;32.13;;;29.63;;
24389;SDS011;12510;56.468;-3.004;2023-07-09T03:06:19;31.98;;;29.90;;
24389;SDS011;12510;56.468;-3.004;2023-07-09T03:08:47;30.33;;;27.77;;
24389;SDS011;12510;56.468;-3.004;2023-07-09T03:11:14;29.75;;;27.20;;
24389;SDS011;12510;56.468;-3.004;2023-07-09T03:13:42;26.27;;;24.30;;
24389;SDS011;12510;56.468;-3.004;2023-07-09T03:16:08;21.08;;;19.45;;
24389;SDS011;12510;56.468;-3.004;2023-07-09T03:18:35;27.33;;;25.35;;
24389;SDS011;12510;56.468;-3.004;2023-07-09T03:21:02;29.73;;;27.50;;
24389;SDS011;12510;56.468;-3.004;2023-07-09T03:23:28;33.17;;;31.02;;
24389;SDS011;12510;56.468;-3.004;2023-07-09T03:25:55;38.58;;;35.47;;
24389;SDS011;12510;56.468;-3.004;2023-07-09T03:28:21;36.75;;;33.97;;
24389;SDS011;12510;56.468;-3.004;2023-07-09T03:30:48;84.53;;;78.05;;
24389;SDS011;12510;56.468;-3.004;2023-07-09T03:33:16;30.50;;;28.42;;
24389;SDS011;12510;56.468;-3.004;2023-07-09T03:35:43;29.80;;;27.40;;
24389;SDS011;12510;56.468;-3.004;2023-07-09T03:38:09;25.27;;;23.42;;
24389;SDS011;12510;56.468;-3.004;2023-07-09T03:40:37;31.50;;;29.17;;
24389;SDS011;12510;56.468;-3.004;2023-07-09T03:43:05;33.35;;;30.67;;
24389;SDS011;12510;56.468;-3.004;2023-07-09T03:45:32;26.27;;;24.52;;
24389;SDS011;12510;56.468;-3.004;2023-07-09T03:47:59;27.30;;;25.38;;
24389;SDS011;12510;56.468;-3.004;2023-07-09T03:50:25;18.63;;;16.88;;
24389;SDS011;12510;56.468;-3.004;2023-07-09T03:52:52;25.13;;;23.52;;
24389;SDS011;12510;56.468;-3.004;2023-07-09T03:55:18;21.60;;;20.27;;
24389;SDS011;12510;56.468;-3.004;2023-07-09T03:57:45;21.73;;;20.40;;
24389;SDS011;12510;56.468;-3.004;2023-07-09T04:00:11;20.25;;;18.95;;
24389;SDS011;12510;56.468;-3.004;2023-07-09T04:02:41;18.25;;;17.08;;
24389;SDS011;12510;56.468;-3.004;2023-07-09T04:05:09;21.33;;;19.98;;
24389;SDS011;12510;56.468;-3.004;2023-07-09T04:07:36;42.53;;;39.83;;
24389;SDS011;12510;56.468;-3.004;2023-07-09T04:10:03;40.80;;;37.67;;
24389;SDS011;12510;56.468;-3.004;2023-07-09T04:12:30;45.40;;;41.88;;
24389;SDS011;12510;56.468;-3.004;2023-07-09T04:14:57;114.63;;;104.57;;
24389;SDS011;12510;56.468;-3.004;2023-07-09T04:17:24;36.95;;;34.08;;
24389;SDS011;12510;56.468;-3.004;2023-07-09T04:19:50;29.48;;;27.25;;
24389;SDS011;12510;56.468;-3.004;2023-07-09T04:22:17;24.98;;;22.98;;
24389;SDS011;12510;56.468;-3.004;2023-07-09T04:24:43;89.72;;;81.80;;
24389;SDS011;12510;56.468;-3.004;2023-07-09T04:27:10;25.95;;;24.15;;
24389;SDS011;12510;56.468;-3.004;2023-07-09T04:29:37;27.02;;;24.58;;
24389;SDS011;12510;56.468;-3.004;2023-07-09T04:32:04;33.47;;;30.20;;
24389;SDS011;12510;56.468;-3.004;2023-07-09T04:34:32;51.92;;;47.65;;
24389;SDS011;12510;56.468;-3.004;2023-07-09T04:36:58;36.80;;;33.67;;
24389;SDS011;12510;56.468;-3.004;2023-07-09T04:39:25;21.67;;;19.70;;
24389;SDS011;12510;56.468;-3.004;2023-07-09T04:41:51;15.45;;;14.18;;
24389;SDS011;12510;56.468;-3.004;2023-07-09T04:44:18;25.23;;;23.33;;
24389;SDS011;12510;56.468;-3.004;2023-07-09T04:46:44;18.70;;;17.13;;
24389;SDS011;12510;56.468;-3.004;2023-07-09T04:49:10;32.28;;;29.95;;
24389;SDS011;12510;56.468;-3.004;2023-07-09T04:51:38;23.90;;;22.17;;
24389;SDS011;12510;56.468;-3.004;2023-07-09T04:54:04;20.85;;;19.35;;
24389;SDS011;12510;56.468;-3.004;2023-07-09T04:56:31;22.38;;;20.88;;
24389;SDS011;12510;56.468;-3.004;2023-07-09T04:58:57;23.48;;;22.02;;
24389;SDS011;12510;56.468;-3.004;2023-07-09T05:01:24;25.13;;;23.40;;
24389;SDS011;12510;56.468;-3.004;2023-07-09T05:03:50;27.40;;;25.67;;
24389;SDS011;12510;56.468;-3.004;2023-07-09T05:06:18;44.88;;;37.67;;
24389;SDS011;12510;56.468;-3.004;2023-07-09T05:08:44;26.67;;;25.10;;
24389;SDS011;12510;56.468;-3.004;2023-07-09T05:11:11;28.58;;;26.88;;
24389;SDS011;12510;56.468;-3.004;2023-07-09T05:13:38;23.02;;;21.65;;
24389;SDS011;12510;56.468;-3.004;2023-07-09T05:16:04;45.35;;;41.92;;
24389;SDS011;12510;56.468;-3.004;2023-07-09T05:18:30;34.58;;;32.28;;
24389;SDS011;12510;56.468;-3.004;2023-07-09T05:20:57;32.65;;;30.50;;
24389;SDS011;12510;56.468;-3.004;2023-07-09T05:23:26;28.23;;;26.38;;
24389;SDS011;12510;56.468;-3.004;2023-07-09T05:25:59;20.95;;;19.40;;
24389;SDS011;12510;56.468;-3.004;2023-07-09T05:28:28;39.72;;;36.75;;
24389;SDS011;12510;56.468;-3.004;2023-07-09T05:30:55;36.55;;;33.83;;
24389;SDS011;12510;56.468;-3.004;2023-07-09T05:33:22;39.65;;;36.35;;
24389;SDS011;12510;56.468;-3.004;2023-07-09T05:35:48;37.75;;;34.58;;
24389;SDS011;12510;56.468;-3.004;2023-07-09T05:38:15;48.85;;;44.50;;
24389;SDS011;12510;56.468;-3.004;2023-07-09T05:40:41;40.22;;;36.80;;
24389;SDS011;12510;56.468;-3.004;2023-07-09T05:43:09;51.92;;;47.50;;
24389;SDS011;12510;56.468;-3.004;2023-07-09T05:45:40;28.65;;;26.08;;
24389;SDS011;12510;56.468;-3.004;2023-07-09T05:48:06;42.25;;;38.97;;
24389;SDS011;12510;56.468;-3.004;2023-07-09T05:50:34;39.38;;;35.92;;
24389;SDS011;12510;56.468;-3.004;2023-07-09T05:53:01;40.72;;;37.30;;
24389;SDS011;12510;56.468;-3.004;2023-07-09T05:55:28;40.13;;;36.47;;
24389;SDS011;12510;56.468;-3.004;2023-07-09T05:57:54;49.70;;;45.30;;
24389;SDS011;12510;56.468;-3.004;2023-07-09T06:00:20;34.40;;;31.48;;
24389;SDS011;12510;56.468;-3.004;2023-07-09T06:02:47;39.95;;;36.13;;
24389;SDS011;12510;56.468;-3.004;2023-07-09T06:05:13;36.10;;;32.65;;
24389;SDS011;12510;56.468;-3.004;2023-07-09T06:07:40;33.05;;;30.05;;
24389;SDS011;12510;56.468;-3.004;2023-07-09T06:10:07;41.92;;;38.72;;
24389;SDS011;12510;56.468;-3.004;2023-07-09T06:12:35;42.13;;;37.25;;
24389;SDS011;12510;56.468;-3.004;2023-07-09T06:15:02;36.15;;;33.05;;
24389;SDS011;12510;56.468;-3.004;2023-07-09T06:17:31;50.42;;;45.28;;
24389;SDS011;12510;56.468;-3.004;2023-07-09T06:19:57;44.80;;;41.33;;
24389;SDS011;12510;56.468;-3.004;2023-07-09T06:22:23;33.88;;;31.13;;
24389;SDS011;12510;56.468;-3.004;2023-07-09T06:24:50;45.25;;;41.42;;
24389;SDS011;12510;56.468;-3.004;2023-07-09T06:27:16;48.00;;;44.40;;
24389;SDS011;12510;56.468;-3.004;2023-07-09T06:29:43;41.63;;;38.28;;
24389;SDS011;12510;56.468;-3.004;2023-07-09T06:32:09;63.60;;;58.35;;
24389;SDS011;12510;56.468;-3.004;2023-07-09T06:34:36;68.45;;;62.78;;
24389;SDS011;12510;56.468;-3.004;2023-07-09T06:37:02;107.55;;;98.22;;
24389;SDS011;12510;56.468;-3.004;2023-07-09T06:39:30;62.90;;;57.38;;
24389;SDS011;12510;56.468;-3.004;2023-07-09T06:41:57;74.13;;;67.63;;
24389;SDS011;12510;56.468;-3.004;2023-07-09T06:44:44;76.43;;;70.38;;
24389;SDS011;12510;56.468;-3.004;2023-07-09T06:47:10;92.75;;;83.82;;
24389;SDS011;12510;56.468;-3.004;2023-07-09T06:49:37;30.20;;;27.17;;
24389;SDS011;12510;56.468;-3.004;2023-07-09T06:52:03;89.15;;;81.32;;
24389;SDS011;12510;56.468;-3.004;2023-07-09T06:54:30;49.08;;;43.85;;
24389;SDS011;12510;56.468;-3.004;2023-07-09T06:56:56;57.08;;;45.55;;
24389;SDS011;12510;56.468;-3.004;2023-07-09T06:59:23;49.90;;;36.92;;
24389;SDS011;12510;56.468;-3.004;2023-07-09T07:01:49;56.00;;;50.47;;
24389;SDS011;12510;56.468;-3.004;2023-07-09T07:04:15;44.33;;;39.70;;
24389;SDS011;12510;56.468;-3.004;2023-07-09T07:06:42;40.75;;;36.75;;
24389;SDS011;12510;56.468;-3.004;2023-07-09T07:09:08;68.60;;;61.92;;
24389;SDS011;12510;56.468;-3.004;2023-07-09T07:11:34;55.30;;;50.28;;
24389;SDS011;12510;56.468;-3.004;2023-07-09T07:14:01;55.63;;;50.67;;
24389;SDS011;12510;56.468;-3.004;2023-07-09T07:16:28;42.65;;;39.05;;
24389;SDS011;12510;56.468;-3.004;2023-07-09T07:18:54;85.07;;;77.47;;
24389;SDS011;12510;56.468;-3.004;2023-07-09T07:21:21;86.10;;;79.10;;
24389;SDS011;12510;56.468;-3.004;2023-07-09T07:23:47;78.30;;;71.97;;
24389;SDS011;12510;56.468;-3.004;2023-07-09T07:26:14;106.47;;;97.78;;
24389;SDS011;12510;56.468;-3.004;2023-07-09T07:28:40;127.10;;;116.30;;
24389;SDS011;12510;56.468;-3.004;2023-07-09T07:31:07;152.88;;;140.27;;
24389;SDS011;12510;56.468;-3.004;2023-07-09T07:33:35;147.80;;;134.63;;
24389;SDS011;12510;56.468;-3.004;2023-07-09T07:36:03;88.25;;;81.45;;
24389;SDS011;12510;56.468;-3.004;2023-07-09T07:38:31;168.60;;;154.25;;
24389;SDS011;12510;56.468;-3.004;2023-07-09T07:40:57;217.68;;;197.88;;
24389;SDS011;12510;56.468;-3.004;2023-07-09T07:43:24;342.40;;;308.83;;
24389;SDS011;12510;56.468;-3.004;2023-07-09T07:45:50;404.75;;;362.48;;
24389;SDS011;12510;56.468;-3.004;2023-07-09T07:48:17;353.67;;;318.48;;
24389;SDS011;12510;56.468;-3.004;2023-07-09T07:50:43;307.27;;;278.38;;
24389;SDS011;12510;56.468;-3.004;2023-07-09T07:53:12;275.83;;;251.15;;
24389;SDS011;12510;56.468;-3.004;2023-07-09T07:55:39;376.20;;;338.83;;
24389;SDS011;12510;56.468;-3.004;2023-07-09T07:58:09;358.50;;;323.08;;
24389;SDS011;12510;56.468;-3.004;2023-07-09T08:00:37;283.30;;;255.18;;
24389;SDS011;12510;56.468;-3.004;2023-07-09T08:03:04;292.02;;;265.27;;
24389;SDS011;12510;56.468;-3.004;2023-07-09T08:05:31;309.27;;;279.80;;
24389;SDS011;12510;56.468;-3.004;2023-07-09T08:07:57;154.07;;;140.10;;
24389;SDS011;12510;56.468;-3.004;2023-07-09T08:10:23;164.40;;;147.82;;
24389;SDS011;12510;56.468;-3.004;2023-07-09T08:12:50;85.43;;;78.35;;
24389;SDS011;12510;56.468;-3.004;2023-07-09T08:15:17;81.60;;;74.13;;
24389;SDS011;12510;56.468;-3.004;2023-07-09T08:17:43;60.20;;;54.88;;
24389;SDS011;12510;56.468;-3.004;2023-07-09T08:20:10;32.38;;;29.38;;
24389;SDS011;12510;56.468;-3.004;2023-07-09T08:22:36;46.83;;;41.85;;
24389;SDS011;12510;56.468;-3.004;2023-07-09T08:25:03;104.10;;;93.45;;
24389;SDS011;12510;56.468;-3.004;2023-07-09T08:27:29;54.35;;;50.10;;
24389;SDS011;12510;56.468;-3.004;2023-07-09T08:29:56;45.92;;;42.42;;
24389;SDS011;12510;56.468;-3.004;2023-07-09T08:32:22;45.95;;;42.55;;
24389;SDS011;12510;56.468;-3.004;2023-07-09T08:34:49;38.17;;;35.42;;
24389;SDS011;12510;56.468;-3.004;2023-07-09T08:37:15;71.50;;;65.65;;
24389;SDS011;12510;56.468;-3.004;2023-07-09T08:39:41;66.32;;;61.03;;
24389;SDS011;12510;56.468;-3.004;2023-07-09T08:42:11;89.85;;;82.68;;
24389;SDS011;12510;56.468;-3.004;2023-07-09T08:52:42;82.75;;;76.43;;
24389;SDS011;12510;56.468;-3.004;2023-07-09T08:55:12;59.95;;;55.28;;
24389;SDS011;12510;56.468;-3.004;2023-07-09T08:57:46;65.75;;;60.83;;
24389;SDS011;12510;56.468;-3.004;2023-07-09T09:00:22;68.55;;;63.28;;
24389;SDS011;12510;56.468;-3.004;2023-07-09T09:02:59;64.10;;;59.10;;
24389;SDS011;12510;56.468;-3.004;2023-07-09T09:05:46;54.28;;;50.05;;
24389;SDS011;12510;56.468;-3.004;2023-07-09T09:13:48;52.10;;;48.28;;
24389;SDS011;12510;56.468;-3.004;2023-07-09T09:16:22;33.60;;;31.48;;
24389;SDS011;12510;56.468;-3.004;2023-07-09T09:18:57;36.72;;;34.15;;
24389;SDS011;12510;56.468;-3.004;2023-07-09T09:21:34;32.42;;;30.30;;
24389;SDS011;12510;56.468;-3.004;2023-07-09T09:24:13;26.52;;;24.83;;
24389;SDS011;12510;56.468;-3.004;2023-07-09T09:26:44;30.45;;;28.50;;
24389;SDS011;12510;56.468;-3.004;2023-07-09T09:29:11;23.85;;;21.80;;
24389;SDS011;12510;56.468;-3.004;2023-07-09T09:31:40;47.35;;;43.88;;
24389;SDS011;12510;56.468;-3.004;2023-07-09T09:34:22;28.45;;;26.63;;
24389;SDS011;12510;56.468;-3.004;2023-07-09T09:36:51;43.80;;;40.97;;
24389;SDS011;12510;56.468;-3.004;2023-07-09T09:39:19;30.48;;;28.52;;
24389;SDS011;12510;56.468;-3.004;2023-07-09T09:41:46;35.95;;;33.65;;
24389;SDS011;12510;56.468;-3.004;2023-07-09T09:44:20;33.25;;;31.20;;
24389;SDS011;12510;56.468;-3.004;2023-07-09T09:46:52;39.75;;;37.03;;
24389;SDS011;12510;56.468;-3.004;2023-07-09T09:49:21;37.20;;;34.80;;
24389;SDS011;12510;56.468;-3.004;2023-07-09T09:51:48;68.25;;;63.80;;
24389;SDS011;12510;56.468;-3.004;2023-07-09T09:54:24;68.20;;;63.70;;
24389;SDS011;12510;56.468;-3.004;2023-07-09T09:56:53;81.63;;;76.10;;
24389;SDS011;12510;56.468;-3.004;2023-07-09T09:59:21;72.30;;;67.18;;
24389;SDS011;12510;56.468;-3.004;2023-07-09T10:02:00;78.45;;;73.07;;
24389;SDS011;12510;56.468;-3.004;2023-07-09T10:04:39;81.75;;;76.28;;
24389;SDS011;12510;56.468;-3.004;2023-07-09T10:07:07;62.92;;;58.88;;
24389;SDS011;12510;56.468;-3.004;2023-07-09T10:09:46;75.90;;;70.57;;
24389;SDS011;12510;56.468;-3.004;2023-07-09T10:15:30;56.53;;;52.97;;
24389;SDS011;12510;56.468;-3.004;2023-07-09T10:26:56;43.30;;;40.70;;
24389;SDS011;12510;56.468;-3.004;2023-07-09T10:32:20;37.33;;;35.05;;
24389;SDS011;12510;56.468;-3.004;2023-07-09T10:35:10;39.13;;;36.65;;
24389;SDS011;12510;56.468;-3.004;2023-07-09T10:40:57;43.30;;;40.60;;
24389;SDS011;12510;56.468;-3.004;2023-07-09T10:43:38;62.30;;;58.05;;
24389;SDS011;12510;56.468;-3.004;2023-07-09T10:46:11;42.22;;;39.53;;
24389;SDS011;12510;56.468;-3.004;2023-07-09T10:48:44;40.85;;;38.20;;
24389;SDS011;12510;56.468;-3.004;2023-07-09T10:53:48;38.03;;;35.60;;
24389;SDS011;12510;56.468;-3.004;2023-07-09T10:56:21;7.60;;;6.93;;
24389;SDS011;12510;56.468;-3.004;2023-07-09T10:58:57;37.55;;;35.20;;
24389;SDS011;12510;56.468;-3.004;2023-07-09T11:01:33;26.70;;;24.95;;
24389;SDS011;12510;56.468;-3.004;2023-07-09T11:04:28;43.58;;;40.80;;
24389;SDS011;12510;56.468;-3.004;2023-07-09T11:06:51;34.95;;;32.50;;
24389;SDS011;12510;56.468;-3.004;2023-07-09T11:09:22;28.33;;;26.45;;
24389;SDS011;12510;56.468;-3.004;2023-07-09T11:11:53;35.15;;;32.88;;
24389;SDS011;12510;56.468;-3.004;2023-07-09T11:14:29;24.15;;;22.63;;
24389;SDS011;12510;56.468;-3.004;2023-07-09T11:17:00;32.40;;;30.38;;
24389;SDS011;12510;56.468;-3.004;2023-07-09T11:19:28;23.17;;;21.58;;
24389;SDS011;12510;56.468;-3.004;2023-07-09T11:22:05;25.20;;;23.35;;
24389;SDS011;12510;56.468;-3.004;2023-07-09T11:24:53;28.85;;;26.98;;
24389;SDS011;12510;56.468;-3.004;2023-07-09T11:30:00;23.05;;;21.52;;
24389;SDS011;12510;56.468;-3.004;2023-07-09T11:32:28;19.40;;;18.20;;
24389;SDS011;12510;56.468;-3.004;2023-07-09T11:35:05;27.75;;;25.92;;
24389;SDS011;12510;56.468;-3.004;2023-07-09T11:37:43;32.17;;;30.10;;
24389;SDS011;12510;56.468;-3.004;2023-07-09T11:40:12;31.45;;;29.27;;
24389;SDS011;12510;56.468;-3.004;2023-07-09T11:45:26;45.63;;;42.45;;
24389;SDS011;12510;56.468;-3.004;2023-07-09T11:48:15;32.17;;;30.13;;
24389;SDS011;12510;56.468;-3.004;2023-07-09T11:50:51;30.80;;;28.88;;
24389;SDS011;12510;56.468;-3.004;2023-07-09T11:56:02;29.88;;;27.92;;
24389;SDS011;12510;56.468;-3.004;2023-07-09T11:58:29;29.10;;;27.30;;
24389;SDS011;12510;56.468;-3.004;2023-07-09T12:00:56;40.80;;;38.15;;
24389;SDS011;12510;56.468;-3.004;2023-07-09T12:05:56;8.15;;;6.32;;
24389;SDS011;12510;56.468;-3.004;2023-07-09T12:08:47;39.40;;;36.88;;
24389;SDS011;12510;56.468;-3.004;2023-07-09T12:13:52;39.00;;;36.58;;
24389;SDS011;12510;56.468;-3.004;2023-07-09T12:18:53;35.03;;;32.78;;
24389;SDS011;12510;56.468;-3.004;2023-07-09T12:21:19;20.55;;;19.08;;
24389;SDS011;12510;56.468;-3.004;2023-07-09T12:23:46;23.13;;;21.48;;
24389;SDS011;12510;56.468;-3.004;2023-07-09T12:26:14;92.85;;;85.32;;
24389;SDS011;12510;56.468;-3.004;2023-07-09T12:28:42;65.75;;;61.17;;
24389;SDS011;12510;56.468;-3.004;2023-07-09T12:31:12;53.05;;;49.65;;
24389;SDS011;12510;56.468;-3.004;2023-07-09T12:33:50;31.33;;;29.17;;
24389;SDS011;12510;56.468;-3.004;2023-07-09T12:36:19;38.45;;;35.88;;
24389;SDS011;12510;56.468;-3.004;2023-07-09T12:38:49;46.47;;;43.30;;
24389;SDS011;12510;56.468;-3.004;2023-07-09T12:41:24;69.60;;;64.75;;
24389;SDS011;12510;56.468;-3.004;2023-07-09T12:43:53;45.13;;;42.20;;
24389;SDS011;12510;56.468;-3.004;2023-07-09T12:46:21;47.90;;;44.50;;
24389;SDS011;12510;56.468;-3.004;2023-07-09T12:48:49;54.72;;;51.00;;
24389;SDS011;12510;56.468;-3.004;2023-07-09T12:51:22;39.90;;;37.33;;
24389;SDS011;12510;56.468;-3.004;2023-07-09T12:56:51;28.17;;;26.38;;
24389;SDS011;12510;56.468;-3.004;2023-07-09T12:59:27;31.73;;;29.63;;
24389;SDS011;12510;56.468;-3.004;2023-07-09T13:02:37;28.65;;;26.73;;
24389;SDS011;12510;56.468;-3.004;2023-07-09T13:05:05;11.73;;;10.93;;
24389;SDS011;12510;56.468;-3.004;2023-07-09T13:07:42;21.75;;;20.17;;
24389;SDS011;12510;56.468;-3.004;2023-07-09T13:10:19;11.80;;;10.75;;
24389;SDS011;12510;56.468;-3.004;2023-07-09T13:12:49;18.17;;;16.98;;
24389;SDS011;12510;56.468;-3.004;2023-07-09T13:17:49;10.88;;;9.82;;
24389;SDS011;12510;56.468;-3.004;2023-07-09T13:20:16;13.55;;;12.50;;
24389;SDS011;12510;56.468;-3.004;2023-07-09T13:22:43;14.55;;;13.57;;
24389;SDS011;12510;56.468;-3.004;2023-07-09T13:25:10;10.65;;;9.88;;
24389;SDS011;12510;56.468;-3.004;2023-07-09T13:27:37;10.00;;;9.27;;
24389;SDS011;12510;56.468;-3.004;2023-07-09T13:30:04;17.65;;;16.25;;
24389;SDS011;12510;56.468;-3.004;2023-07-09T13:32:31;11.50;;;10.73;;
24389;SDS011;12510;56.468;-3.004;2023-07-09T13:34:57;14.10;;;13.10;;
24389;SDS011;12510;56.468;-3.004;2023-07-09T13:37:24;12.35;;;11.43;;
24389;SDS011;12510;56.468;-3.004;2023-07-09T13:39:50;10.27;;;9.38;;
24389;SDS011;12510;56.468;-3.004;2023-07-09T13:42:17;8.32;;;7.45;;
24389;SDS011;12510;56.468;-3.004;2023-07-09T13:44:44;5.15;;;4.68;;
24389;SDS011;12510;56.468;-3.004;2023-07-09T13:47:16;7.93;;;7.40;;
24389;SDS011;12510;56.468;-3.004;2023-07-09T13:49:45;7.25;;;6.65;;
24389;SDS011;12510;56.468;-3.004;2023-07-09T13:52:17;4.75;;;4.35;;
24389;SDS011;12510;56.468;-3.004;2023-07-09T13:54:46;27.15;;;25.33;;
24389;SDS011;12510;56.468;-3.004;2023-07-09T13:57:17;26.23;;;24.40;;
24389;SDS011;12510;56.468;-3.004;2023-07-09T13:59:44;52.90;;;49.53;;
24389;SDS011;12510;56.468;-3.004;2023-07-09T14:02:32;26.85;;;25.00;;
24389;SDS011;12510;56.468;-3.004;2023-07-09T14:05:02;32.30;;;30.20;;
24389;SDS011;12510;56.468;-3.004;2023-07-09T14:07:35;39.35;;;36.92;;
24389;SDS011;12510;56.468;-3.004;2023-07-09T14:10:04;30.38;;;28.35;;
24389;SDS011;12510;56.468;-3.004;2023-07-09T14:12:33;21.30;;;19.95;;
24389;SDS011;12510;56.468;-3.004;2023-07-09T14:15:02;27.00;;;25.23;;
24389;SDS011;12510;56.468;-3.004;2023-07-09T14:17:36;27.67;;;25.80;;
24389;SDS011;12510;56.468;-3.004;2023-07-09T14:20:03;43.85;;;40.88;;
24389;SDS011;12510;56.468;-3.004;2023-07-09T14:22:31;35.58;;;33.38;;
24389;SDS011;12510;56.468;-3.004;2023-07-09T14:25:00;29.55;;;27.42;;
24389;SDS011;12510;56.468;-3.004;2023-07-09T14:27:28;33.17;;;31.05;;
24389;SDS011;12510;56.468;-3.004;2023-07-09T14:29:54;44.83;;;42.13;;
24389;SDS011;12510;56.468;-3.004;2023-07-09T14:32:42;25.80;;;24.15;;
24389;SDS011;12510;56.468;-3.004;2023-07-09T14:35:14;45.85;;;42.97;;
24389;SDS011;12510;56.468;-3.004;2023-07-09T14:40:55;25.00;;;23.50;;
24389;SDS011;12510;56.468;-3.004;2023-07-09T14:43:41;35.05;;;32.92;;
24389;SDS011;12510;56.468;-3.004;2023-07-09T14:46:08;36.25;;;33.88;;
24389;SDS011;12510;56.468;-3.004;2023-07-09T14:48:34;40.40;;;37.72;;
24389;SDS011;12510;56.468;-3.004;2023-07-09T14:51:01;37.85;;;35.45;;
24389;SDS011;12510;56.468;-3.004;2023-07-09T14:53:27;30.80;;;28.63;;
24389;SDS011;12510;56.468;-3.004;2023-07-09T14:55:54;31.17;;;29.05;;
24389;SDS011;12510;56.468;-3.004;2023-07-09T14:58:21;27.77;;;26.08;;
24389;SDS011;12510;56.468;-3.004;2023-07-09T15:00:49;38.42;;;35.80;;
24389;SDS011;12510;56.468;-3.004;2023-07-09T15:03:24;35.00;;;32.53;;
24389;SDS011;12510;56.468;-3.004;2023-07-09T15:05:52;28.42;;;26.38;;
24389;SDS011;12510;56.468;-3.004;2023-07-09T15:08:21;31.90;;;29.92;;
24389;SDS011;12510;56.468;-3.004;2023-07-09T15:10:49;21.50;;;20.20;;
24389;SDS011;12510;56.468;-3.004;2023-07-09T15:13:19;25.25;;;23.80;;
24389;SDS011;12510;56.468;-3.004;2023-07-09T15:15:55;35.63;;;33.42;;
24389;SDS011;12510;56.468;-3.004;2023-07-09T15:18:21;37.95;;;35.25;;
24389;SDS011;12510;56.468;-3.004;2023-07-09T15:20:51;40.72;;;38.08;;
24389;SDS011;12510;56.468;-3.004;2023-07-09T15:23:21;32.33;;;30.38;;
24389;SDS011;12510;56.468;-3.004;2023-07-09T15:25:49;35.35;;;33.10;;
24389;SDS011;12510;56.468;-3.004;2023-07-09T15:28:16;36.05;;;33.88;;